Time,TemperatureF,DewpointF,PressureIn,WindDirection,WindDirectionDegrees,WindSpeedMPH,WindSpeedGustMPH,Humidity,HourlyPrecipIn,Conditions,Clouds,dailyrainin,SoftwareType,DateUTC
2013-01-07 00:00:00,31.1,27.4,30.05,East,100,0.0,2.0,86,0.00,,,0.09,Wunderground v.1.15,2013-01-07 05:00:00,
2013-01-07 00:05:00,31.2,27.5,30.05,East,100,0.0,2.0,86,0.00,,,0.00,Wunderground v.1.15,2013-01-07 05:05:00,
2013-01-07 00:10:00,31.8,28.1,30.05,SW,223,1.0,2.0,86,0.00,,,0.00,Wunderground v.1.15,2013-01-07 05:10:00,
2013-01-07 00:15:00,32.6,28.6,30.05,WSW,250,1.0,2.0,85,0.00,,,0.00,Wunderground v.1.15,2013-01-07 05:15:00,
2013-01-07 00:20:00,33.3,28.7,30.05,SW,229,1.0,1.0,83,0.00,,,0.00,Wunderground v.1.15,2013-01-07 05:20:00,
2013-01-07 00:25:00,33.8,28.9,30.04,SSW,207,1.0,2.0,82,0.00,,,0.00,Wunderground v.1.15,2013-01-07 05:25:00,
2013-01-07 00:30:00,34.4,29.2,30.04,SW,225,2.0,2.0,81,0.00,,,0.00,Wunderground v.1.15,2013-01-07 05:30:00,
2013-01-07 00:35:00,34.4,29.2,30.04,SW,225,1.0,2.0,81,0.00,,,0.00,Wunderground v.1.15,2013-01-07 05:35:00,
2013-01-07 00:40:00,34.2,29.0,30.05,SW,225,0.0,2.0,81,0.00,,,0.00,Wunderground v.1.15,2013-01-07 05:40:00,
2013-01-07 00:45:00,33.9,28.7,30.05,WSW,250,1.0,2.0,81,0.00,,,0.00,Wunderground v.1.15,2013-01-07 05:45:00,
2013-01-07 00:50:00,34.2,29.0,30.06,WSW,252,1.0,4.0,81,0.00,,,0.00,Wunderground v.1.15,2013-01-07 05:50:00,
2013-01-07 01:00:00,34.7,29.2,30.06,WSW,237,2.0,2.0,80,0.00,,,0.00,Wunderground v.1.15,2013-01-07 06:00:00,
2013-01-07 01:05:00,34.7,29.2,30.06,WSW,239,2.0,2.0,80,0.00,,,0.00,Wunderground v.1.15,2013-01-07 06:05:00,
2013-01-07 01:10:00,34.5,29.0,30.06,WSW,239,1.0,1.0,80,0.00,,,0.00,Wunderground v.1.15,2013-01-07 06:10:00,
2013-01-07 01:15:00,34.3,28.8,30.07,WSW,239,0.0,2.0,80,0.00,,,0.00,Wunderground v.1.15,2013-01-07 06:15:00,
2013-01-07 01:20:00,34.1,28.6,30.07,WSW,239,0.0,2.0,80,0.00,,,0.00,Wunderground v.1.15,2013-01-07 06:20:00,
2013-01-07 01:25:00,33.9,28.7,30.07,WSW,239,0.0,2.0,81,0.00,,,0.00,Wunderground v.1.15,2013-01-07 06:25:00,
2013-01-07 01:35:00,33.8,28.9,30.07,WSW,240,0.0,2.0,82,0.00,,,0.00,Wunderground v.1.15,2013-01-07 06:35:00,
2013-01-07 01:40:00,33.8,28.6,30.07,WSW,240,0.0,2.0,81,0.00,,,0.00,Wunderground v.1.15,2013-01-07 06:40:00,
2013-01-07 01:45:00,33.6,28.7,30.07,WSW,240,0.0,2.0,82,0.00,,,0.00,Wunderground v.1.15,2013-01-07 06:45:00,
2013-01-07 01:50:00,33.9,29.0,30.07,WSW,254,1.0,2.0,82,0.00,,,0.00,Wunderground v.1.15,2013-01-07 06:50:00,
2013-01-07 01:55:00,34.4,29.2,30.08,SW,232,2.0,2.0,81,0.00,,,0.00,Wunderground v.1.15,2013-01-07 06:55:00,
2013-01-07 02:00:00,34.5,29.0,30.08,WSW,245,1.0,2.0,80,0.00,,,0.00,Wunderground v.1.15,2013-01-07 07:00:00,
2013-01-07 02:10:00,34.7,29.2,30.08,WSW,250,1.0,1.0,80,0.00,,,0.00,Wunderground v.1.15,2013-01-07 07:10:00,
2013-01-07 02:15:00,34.8,29.3,30.08,WSW,250,1.0,2.0,80,0.00,,,0.00,Wunderground v.1.15,2013-01-07 07:15:00,
2013-01-07 02:20:00,34.8,29.3,30.08,WSW,250,0.0,2.0,80,0.00,,,0.00,Wunderground v.1.15,2013-01-07 07:20:00,
2013-01-07 02:25:00,34.8,29.3,30.09,WNW,292,1.0,2.0,80,0.00,,,0.00,Wunderground v.1.15,2013-01-07 07:25:00,
2013-01-07 02:30:00,34.8,29.3,30.09,WNW,292,1.0,2.0,80,0.00,,,0.00,Wunderground v.1.15,2013-01-07 07:30:00,
2013-01-07 02:35:00,34.8,29.3,30.09,WNW,292,1.0,2.0,80,0.00,,,0.00,Wunderground v.1.15,2013-01-07 07:35:00,
2013-01-07 02:45:00,35.1,29.2,30.09,WNW,288,2.0,4.0,79,0.00,,,0.00,Wunderground v.1.15,2013-01-07 07:45:00,
2013-01-07 02:50:00,35.3,29.4,30.09,WNW,282,2.0,6.0,79,0.00,,,0.00,Wunderground v.1.15,2013-01-07 07:50:00,
2013-01-07 02:55:00,35.5,29.6,30.09,West,270,3.0,7.0,79,0.00,,,0.00,Wunderground v.1.15,2013-01-07 07:55:00,
2013-01-07 03:00:00,35.8,29.9,30.10,WNW,283,5.0,5.0,79,0.00,,,0.00,Wunderground v.1.15,2013-01-07 08:00:00,
2013-01-07 03:05:00,35.9,30.0,30.10,West,267,4.0,5.0,79,0.00,,,0.00,Wunderground v.1.15,2013-01-07 08:05:00,
2013-01-07 03:10:00,35.8,29.9,30.10,WNW,298,2.0,5.0,79,0.00,,,0.00,Wunderground v.1.15,2013-01-07 08:10:00,
2013-01-07 03:20:00,35.8,29.9,30.11,West,274,3.0,3.0,79,0.00,,,0.00,Wunderground v.1.15,2013-01-07 08:20:00,
2013-01-07 03:25:00,35.9,30.0,30.11,WSW,254,3.0,3.0,79,0.00,,,0.00,Wunderground v.1.15,2013-01-07 08:25:00,
2013-01-07 03:30:00,35.9,30.0,30.11,WNW,283,3.0,5.0,79,0.00,,,0.00,Wunderground v.1.15,2013-01-07 08:30:00,
2013-01-07 03:35:00,35.9,30.0,30.11,West,269,2.0,5.0,79,0.00,,,0.00,Wunderground v.1.15,2013-01-07 08:35:00,
2013-01-07 03:40:00,35.9,30.0,30.11,WNW,282,3.0,3.0,79,0.00,,,0.00,Wunderground v.1.15,2013-01-07 08:40:00,
2013-01-07 03:45:00,35.9,30.3,30.11,WNW,282,2.0,3.0,80,0.00,,,0.00,Wunderground v.1.15,2013-01-07 08:45:00,
2013-01-07 03:55:00,35.9,30.3,30.12,WNW,291,2.0,6.0,80,0.00,,,0.00,Wunderground v.1.15,2013-01-07 08:55:00,
2013-01-07 04:00:00,35.9,30.3,30.12,WNW,284,3.0,4.0,80,0.00,,,0.00,Wunderground v.1.15,2013-01-07 09:00:00,
2013-01-07 04:05:00,35.9,30.3,30.12,WNW,288,3.0,4.0,80,0.00,,,0.00,Wunderground v.1.15,2013-01-07 09:05:00,
2013-01-07 04:10:00,35.8,30.5,30.12,WNW,297,2.0,2.0,81,0.00,,,0.00,Wunderground v.1.15,2013-01-07 09:10:00,
2013-01-07 04:15:00,35.7,30.7,30.13,WNW,301,3.0,5.0,82,0.00,,,0.00,Wunderground v.1.15,2013-01-07 09:15:00,
2013-01-07 04:20:00,35.6,30.9,30.13,West,280,4.0,6.0,83,0.00,,,0.00,Wunderground v.1.15,2013-01-07 09:20:00,
2013-01-07 04:30:00,35.3,31.2,30.13,NW,309,3.0,3.0,85,0.00,,,0.00,Wunderground v.1.15,2013-01-07 09:30:00,
2013-01-07 04:35:00,35.1,31.3,30.13,WNW,297,2.0,4.0,86,0.00,,,0.00,Wunderground v.1.15,2013-01-07 09:35:00,
2013-01-07 04:40:00,35.0,31.2,30.14,WNW,296,2.0,2.0,86,0.00,,,0.00,Wunderground v.1.15,2013-01-07 09:40:00,
2013-01-07 04:45:00,35.0,31.2,30.14,WNW,291,3.0,5.0,86,0.00,,,0.00,Wunderground v.1.15,2013-01-07 09:45:00,
2013-01-07 04:50:00,35.0,30.9,30.14,WNW,298,4.0,4.0,85,0.00,,,0.00,Wunderground v.1.15,2013-01-07 09:50:00,
2013-01-07 05:00:00,35.1,30.5,30.14,WNW,284,4.0,8.0,83,0.00,,,0.00,Wunderground v.1.15,2013-01-07 10:00:00,
2013-01-07 05:05:00,35.3,30.4,30.15,WNW,294,6.0,8.0,82,0.00,,,0.00,Wunderground v.1.15,2013-01-07 10:05:00,
2013-01-07 05:10:00,35.4,29.8,30.15,WNW,292,7.0,7.0,80,0.00,,,0.00,Wunderground v.1.15,2013-01-07 10:10:00,
2013-01-07 05:15:00,35.5,30.2,30.16,WNW,300,6.0,7.0,81,0.00,,,0.00,Wunderground v.1.15,2013-01-07 10:15:00,
2013-01-07 05:20:00,35.5,29.9,30.16,WNW,298,6.0,7.0,80,0.00,,,0.00,Wunderground v.1.15,2013-01-07 10:20:00,
2013-01-07 05:25:00,35.4,29.5,30.16,WNW,299,7.0,12.0,79,0.00,,,0.00,Wunderground v.1.15,2013-01-07 10:25:00,
2013-01-07 05:35:00,35.2,28.7,30.16,WNW,298,9.0,9.0,77,0.00,,,0.00,Wunderground v.1.15,2013-01-07 10:35:00,
2013-01-07 05:40:00,35.1,28.6,30.17,West,264,7.0,7.0,77,0.00,,,0.00,Wunderground v.1.15,2013-01-07 10:40:00,
2013-01-07 05:45:00,35.0,28.5,30.17,WNW,297,6.0,7.0,77,0.00,,,0.00,Wunderground v.1.15,2013-01-07 10:45:00,
2013-01-07 05:50:00,34.9,28.7,30.18,West,268,6.0,6.0,78,0.00,,,0.00,Wunderground v.1.15,2013-01-07 10:50:00,
2013-01-07 05:55:00,34.7,28.2,30.18,West,280,5.0,7.0,77,0.00,,,0.00,Wunderground v.1.15,2013-01-07 10:55:00,
2013-01-07 06:00:00,34.6,28.1,30.18,West,279,5.0,5.0,77,0.00,,,0.00,Wunderground v.1.15,2013-01-07 11:00:00,
2013-01-07 06:05:00,34.5,28.3,30.18,WNW,294,4.0,7.0,78,0.00,,,0.00,Wunderground v.1.15,2013-01-07 11:05:00,
2013-01-07 06:15:00,34.0,27.5,30.19,WNW,284,3.0,7.0,77,0.00,,,0.00,Wunderground v.1.15,2013-01-07 11:15:00,
2013-01-07 06:20:00,33.9,27.1,30.20,WNW,302,5.0,8.0,76,0.00,,,0.00,Wunderground v.1.15,2013-01-07 11:20:00,
2013-01-07 06:25:00,33.7,26.6,30.20,WNW,290,7.0,8.0,75,0.00,,,0.00,Wunderground v.1.15,2013-01-07 11:25:00,
2013-01-07 06:30:00,33.6,26.5,30.20,WNW,302,8.0,8.0,75,0.00,,,0.00,Wunderground v.1.15,2013-01-07 11:30:00,
2013-01-07 06:35:00,33.4,26.6,30.20,West,276,8.0,8.0,76,0.00,,,0.00,Wunderground v.1.15,2013-01-07 11:35:00,
2013-01-07 06:45:00,33.1,26.4,30.22,WNW,298,5.0,10.0,76,0.00,,,0.00,Wunderground v.1.15,2013-01-07 11:45:00,
2013-01-07 06:50:00,32.9,26.5,30.22,WNW,290,4.0,4.0,77,0.00,,,0.00,Wunderground v.1.15,2013-01-07 11:50:00,
2013-01-07 06:55:00,32.8,26.4,30.22,West,276,4.0,7.0,77,0.00,,,0.00,Wunderground v.1.15,2013-01-07 11:55:00,
2013-01-07 07:00:00,32.7,26.3,30.23,WSW,245,4.0,7.0,77,0.00,,,0.00,Wunderground v.1.15,2013-01-07 12:00:00,
2013-01-07 07:05:00,32.5,25.8,30.23,WSW,241,5.0,7.0,76,0.00,,,0.00,Wunderground v.1.15,2013-01-07 12:05:00,
2013-01-07 07:10:00,32.5,25.5,30.23,WNW,292,6.0,7.0,75,0.00,,,0.00,Wunderground v.1.15,2013-01-07 12:10:00,
2013-01-07 07:15:00,32.4,25.4,30.24,WNW,288,6.0,7.0,75,0.00,,,0.00,Wunderground v.1.15,2013-01-07 12:15:00,
2013-01-07 07:25:00,31.9,26.1,30.24,NW,309,5.0,7.0,79,0.00,,,0.00,Wunderground v.1.15,2013-01-07 12:25:00,
2013-01-07 07:30:00,31.3,25.5,30.25,NNW,331,4.0,4.0,79,0.00,,,0.00,Wunderground v.1.15,2013-01-07 12:30:00,
2013-01-07 07:35:00,30.7,25.3,30.25,WNW,297,3.0,5.0,80,0.00,,,0.00,Wunderground v.1.15,2013-01-07 12:35:00,
2013-01-07 07:40:00,30.2,25.1,30.25,NW,304,3.0,3.0,81,0.00,,,0.00,Wunderground v.1.15,2013-01-07 12:40:00,
2013-01-07 07:45:00,29.8,25.0,30.25,NNW,343,2.0,7.0,82,0.00,,,0.00,Wunderground v.1.15,2013-01-07 12:45:00,
2013-01-07 07:50:00,29.6,24.8,30.26,North,349,3.0,3.0,82,0.00,,,0.00,Wunderground v.1.15,2013-01-07 12:50:00,
2013-01-07 07:55:00,29.4,24.6,30.26,NNW,341,3.0,7.0,82,0.00,,,0.00,Wunderground v.1.15,2013-01-07 12:55:00,
2013-01-07 08:05:00,29.1,24.6,30.27,NNW,348,3.0,5.0,83,0.00,,,0.00,Wunderground v.1.15,2013-01-07 13:05:00,
2013-01-07 08:10:00,28.9,24.1,30.27,NNW,348,4.0,7.0,82,0.00,,,0.00,Wunderground v.1.15,2013-01-07 13:10:00,
2013-01-07 08:15:00,28.8,24.0,30.28,North,360,5.0,7.0,82,0.00,,,0.00,Wunderground v.1.15,2013-01-07 13:15:00,
2013-01-07 08:20:00,28.7,23.9,30.28,NW,321,4.0,7.0,82,0.00,,,0.00,Wunderground v.1.15,2013-01-07 13:20:00,
2013-01-07 08:25:00,28.5,23.7,30.28,NNW,342,3.0,7.0,82,0.00,,,0.00,Wunderground v.1.15,2013-01-07 13:25:00,
2013-01-07 08:30:00,28.5,23.7,30.29,NNW,340,3.0,7.0,82,0.00,,,0.00,Wunderground v.1.15,2013-01-07 13:30:00,
2013-01-07 08:40:00,28.6,23.8,30.30,WNW,302,3.0,3.0,82,0.00,,,0.00,Wunderground v.1.15,2013-01-07 13:40:00,
2013-01-07 08:45:00,29.0,23.9,30.30,NW,313,4.0,4.0,81,0.00,,,0.00,Wunderground v.1.15,2013-01-07 13:45:00,
2013-01-07 08:50:00,29.3,24.2,30.31,WNW,292,5.0,5.0,81,0.00,,,0.00,Wunderground v.1.15,2013-01-07 13:50:00,
2013-01-07 08:55:00,29.6,24.2,30.31,WNW,295,5.0,6.0,80,0.00,,,0.00,Wunderground v.1.15,2013-01-07 13:55:00,
2013-01-07 09:00:00,29.8,24.4,30.31,WNW,295,6.0,8.0,80,0.00,,,0.00,Wunderground v.1.15,2013-01-07 14:00:00,
2013-01-07 09:05:00,29.8,24.1,30.32,West,271,6.0,8.0,79,0.00,,,0.00,Wunderground v.1.15,2013-01-07 14:05:00,
2013-01-07 09:10:00,29.8,24.1,30.33,WSW,257,6.0,6.0,79,0.00,,,0.00,Wunderground v.1.15,2013-01-07 14:10:00,
2013-01-07 09:20:00,29.7,24.0,30.33,NW,309,6.0,8.0,79,0.00,,,0.00,Wunderground v.1.15,2013-01-07 14:20:00,
2013-01-07 09:25:00,29.7,24.0,30.34,WNW,286,6.0,8.0,79,0.00,,,0.00,Wunderground v.1.15,2013-01-07 14:25:00,
2013-01-07 09:30:00,29.6,23.9,30.34,WSW,255,5.0,7.0,79,0.00,,,0.00,Wunderground v.1.15,2013-01-07 14:30:00,
2013-01-07 09:35:00,29.6,23.9,30.34,West,261,4.0,7.0,79,0.00,,,0.00,Wunderground v.1.15,2013-01-07 14:35:00,
2013-01-07 09:40:00,29.5,23.8,30.35,NNW,346,2.0,2.0,79,0.00,,,0.00,Wunderground v.1.15,2013-01-07 14:40:00,
2013-01-07 09:45:00,29.4,23.7,30.35,NNW,331,1.0,7.0,79,0.00,,,0.00,Wunderground v.1.15,2013-01-07 14:45:00,
2013-01-07 09:55:00,29.3,23.3,30.36,NW,304,5.0,7.0,78,0.00,,,0.00,Wunderground v.1.15,2013-01-07 14:55:00,
2013-01-07 10:00:00,29.2,22.9,30.36,WNW,302,6.0,7.0,77,0.00,,,0.00,Wunderground v.1.15,2013-01-07 15:00:00,
2013-01-07 10:05:00,29.2,23.2,30.37,WNW,297,6.0,7.0,78,0.00,,,0.00,Wunderground v.1.15,2013-01-07 15:05:00,
2013-01-07 10:10:00,29.2,23.2,30.37,West,276,4.0,7.0,78,0.00,,,0.00,Wunderground v.1.15,2013-01-07 15:10:00,
2013-01-07 10:15:00,29.2,22.9,30.37,West,260,5.0,7.0,77,0.00,,,0.00,Wunderground v.1.15,2013-01-07 15:15:00,
2013-01-07 10:20:00,29.1,22.8,30.37,WNW,295,7.0,9.0,77,0.00,,,0.00,Wunderground v.1.15,2013-01-07 15:20:00,
2013-01-07 10:25:00,29.1,22.8,30.37,NW,326,6.0,9.0,77,0.00,,,0.00,Wunderground v.1.15,2013-01-07 15:25:00,
2013-01-07 10:35:00,29.3,23.0,30.38,NNW,346,3.0,7.0,77,0.00,,,0.00,Wunderground v.1.15,2013-01-07 15:35:00,
2013-01-07 10:40:00,29.4,23.1,30.38,NW,323,4.0,7.0,77,0.00,,,0.00,Wunderground v.1.15,2013-01-07 15:40:00,
2013-01-07 10:45:00,29.6,23.3,30.38,NNW,344,5.0,7.0,77,0.00,,,0.00,Wunderground v.1.15,2013-01-07 15:45:00,
2013-01-07 10:50:00,29.8,23.5,30.38,NW,306,4.0,7.0,77,0.00,,,0.00,Wunderground v.1.15,2013-01-07 15:50:00,
2013-01-07 10:55:00,30.0,23.4,30.38,WNW,298,4.0,7.0,76,0.00,,,0.00,Wunderground v.1.15,2013-01-07 15:55:00,
2013-01-07 11:00:00,30.3,23.3,30.38,WNW,293,4.0,4.0,75,0.00,,,0.00,Wunderground v.1.15,2013-01-07 16:00:00,
2013-01-07 11:05:00,30.6,23.6,30.38,NNW,334,4.0,6.0,75,0.00,,,0.00,Wunderground v.1.15,2013-01-07 16:05:00,
2013-01-07 11:10:00,31.1,23.8,30.38,NNW,333,5.0,7.0,74,0.00,,,0.00,Wunderground v.1.15,2013-01-07 16:10:00,
2013-01-07 11:20:00,31.7,24.0,30.39,North,355,5.0,7.0,73,0.00,,,0.00,Wunderground v.1.15,2013-01-07 16:20:00,
2013-01-07 11:25:00,32.1,24.1,30.38,WNW,292,5.0,7.0,72,0.00,,,0.00,Wunderground v.1.15,2013-01-07 16:25:00,
2013-01-07 11:30:00,32.3,23.9,30.38,NW,326,5.0,5.0,71,0.00,,,0.00,Wunderground v.1.15,2013-01-07 16:30:00,
2013-01-07 11:35:00,32.4,24.0,30.37,North,5,5.0,7.0,71,0.00,,,0.00,Wunderground v.1.15,2013-01-07 16:35:00,
2013-01-07 11:45:00,32.4,24.0,30.37,North,355,5.0,6.0,71,0.00,,,0.00,Wunderground v.1.15,2013-01-07 16:45:00,
2013-01-07 11:50:00,32.5,23.8,30.37,North,355,3.0,3.0,70,0.00,,,0.00,Wunderground v.1.15,2013-01-07 16:50:00,
2013-01-07 11:55:00,32.6,23.9,30.36,North,360,2.0,3.0,70,0.00,,,0.00,Wunderground v.1.15,2013-01-07 16:55:00,
2013-01-07 12:00:00,32.6,23.9,30.37,North,355,2.0,4.0,70,0.00,,,0.00,Wunderground v.1.15,2013-01-07 17:00:00,
2013-01-07 12:05:00,32.7,24.0,30.37,WNW,292,3.0,5.0,70,0.00,,,0.00,Wunderground v.1.15,2013-01-07 17:05:00,
2013-01-07 12:10:00,32.6,23.6,30.36,North,360,4.0,4.0,69,0.00,,,0.00,Wunderground v.1.15,2013-01-07 17:10:00,
2013-01-07 12:15:00,32.7,23.3,30.36,NW,309,4.0,4.0,68,0.00,,,0.00,Wunderground v.1.15,2013-01-07 17:15:00,
2013-01-07 12:20:00,32.8,23.4,30.37,WNW,295,4.0,4.0,68,0.00,,,0.00,Wunderground v.1.15,2013-01-07 17:20:00,
2013-01-07 12:30:00,33.1,23.7,30.37,WNW,296,3.0,3.0,68,0.00,,,0.00,Wunderground v.1.15,2013-01-07 17:30:00,
2013-01-07 12:35:00,33.0,23.2,30.36,WNW,291,3.0,6.0,67,0.00,,,0.00,Wunderground v.1.15,2013-01-07 17:35:00,
2013-01-07 12:40:00,32.8,22.7,30.37,West,261,4.0,4.0,66,0.00,,,0.00,Wunderground v.1.15,2013-01-07 17:40:00,
2013-01-07 12:45:00,33.0,23.2,30.37,NW,304,4.0,10.0,67,0.00,,,0.00,Wunderground v.1.15,2013-01-07 17:45:00,
2013-01-07 12:50:00,33.3,23.2,30.38,West,269,3.0,10.0,66,0.00,,,0.00,Wunderground v.1.15,2013-01-07 17:50:00,
2013-01-07 12:55:00,33.3,23.5,30.37,WNW,294,2.0,10.0,67,0.00,,,0.00,Wunderground v.1.15,2013-01-07 17:55:00,
2013-01-07 13:00:00,33.9,23.7,30.37,WNW,297,2.0,10.0,66,0.00,,,0.00,Wunderground v.1.15,2013-01-07 18:00:00,
2013-01-07 13:10:00,34.8,23.9,30.37,West,279,4.0,4.0,64,0.00,,,0.00,Wunderground v.1.15,2013-01-07 18:10:00,
2013-01-07 13:15:00,34.9,23.6,30.37,WNW,292,3.0,6.0,63,0.00,,,0.00,Wunderground v.1.15,2013-01-07 18:15:00,
2013-01-07 13:20:00,35.0,23.7,30.38,WNW,292,3.0,10.0,63,0.00,,,0.00,Wunderground v.1.15,2013-01-07 18:20:00,
2013-01-07 13:25:00,35.3,23.2,30.38,WNW,296,5.0,11.0,61,0.00,,,0.00,Wunderground v.1.15,2013-01-07 18:25:00,
2013-01-07 13:30:00,35.4,23.3,30.38,WNW,298,5.0,10.0,61,0.00,,,0.00,Wunderground v.1.15,2013-01-07 18:30:00,
2013-01-07 13:35:00,35.6,23.5,30.38,WNW,294,5.0,10.0,61,0.00,,,0.00,Wunderground v.1.15,2013-01-07 18:35:00,
2013-01-07 13:45:00,35.6,22.3,30.37,WNW,292,5.0,10.0,58,0.00,,,0.00,Wunderground v.1.15,2013-01-07 18:45:00,
2013-01-07 13:50:00,36.0,22.6,30.38,WNW,299,3.0,3.0,58,0.00,,,0.00,Wunderground v.1.15,2013-01-07 18:50:00,
2013-01-07 13:55:00,36.1,22.3,30.37,WNW,302,2.0,10.0,57,0.00,,,0.00,Wunderground v.1.15,2013-01-07 18:55:00,
2013-01-07 14:00:00,36.6,23.2,30.38,NNW,332,3.0,3.0,58,0.00,,,0.01,Wunderground v.1.15,2013-01-07 19:00:00,
2013-01-07 14:05:00,37.2,22.9,30.38,West,281,2.0,10.0,56,0.00,,,0.01,Wunderground v.1.15,2013-01-07 19:05:00,
2013-01-07 14:10:00,37.4,23.1,30.38,West,281,1.0,1.0,56,0.00,,,0.01,Wunderground v.1.15,2013-01-07 19:10:00,
2013-01-07 14:15:00,38.1,23.3,30.39,NNW,331,0.0,10.0,55,0.00,,,0.01,Wunderground v.1.15,2013-01-07 19:15:00,
2013-01-07 14:25:00,37.2,22.5,30.38,SW,236,2.0,10.0,55,0.00,,,0.01,Wunderground v.1.15,2013-01-07 19:25:00,
2013-01-07 14:30:00,36.7,22.9,30.38,NW,314,2.0,2.0,57,0.00,,,0.01,Wunderground v.1.15,2013-01-07 19:30:00,
2013-01-07 14:35:00,37.2,23.4,30.38,NW,304,2.0,10.0,57,0.00,,,0.01,Wunderground v.1.15,2013-01-07 19:35:00,
2013-01-07 14:40:00,37.0,22.3,30.38,NW,306,3.0,3.0,55,0.00,,,0.01,Wunderground v.1.15,2013-01-07 19:40:00,
2013-01-07 14:45:00,37.2,22.9,30.38,WNW,297,3.0,10.0,56,0.00,,,0.01,Wunderground v.1.15,2013-01-07 19:45:00,
2013-01-07 14:50:00,36.8,22.1,30.38,WNW,292,1.0,10.0,55,0.00,,,0.01,Wunderground v.1.15,2013-01-07 19:50:00,
2013-01-07 14:55:00,36.7,22.9,30.38,NNW,333,1.0,10.0,57,0.00,,,0.01,Wunderground v.1.15,2013-01-07 19:55:00,
2013-01-07 15:05:00,36.1,21.9,30.39,WNW,294,3.0,4.0,56,0.00,,,0.01,Wunderground v.1.15,2013-01-07 20:05:00,
2013-01-07 15:10:00,35.2,21.9,30.39,West,279,3.0,3.0,58,0.00,,,0.01,Wunderground v.1.15,2013-01-07 20:10:00,
2013-01-07 15:15:00,34.8,21.1,30.39,WNW,296,3.0,10.0,57,0.00,,,0.01,Wunderground v.1.15,2013-01-07 20:15:00,
2013-01-07 15:20:00,34.5,21.6,30.40,WNW,296,2.0,2.0,59,0.00,,,0.01,Wunderground v.1.15,2013-01-07 20:20:00,
2013-01-07 15:25:00,34.3,21.4,30.40,WNW,296,1.0,10.0,59,0.00,,,0.01,Wunderground v.1.15,2013-01-07 20:25:00,
2013-01-07 15:30:00,34.1,21.3,30.40,NNW,329,1.0,10.0,59,0.00,,,0.01,Wunderground v.1.15,2013-01-07 20:30:00,
2013-01-07 15:40:00,33.7,21.3,30.40,NW,326,1.0,1.0,60,0.00,,,0.01,Wunderground v.1.15,2013-01-07 20:40:00,
2013-01-07 15:45:00,33.4,21.0,30.40,NW,326,1.0,10.0,60,0.00,,,0.01,Wunderground v.1.15,2013-01-07 20:45:00,
2013-01-07 15:50:00,33.3,20.9,30.40,NW,310,1.0,1.0,60,0.00,,,0.01,Wunderground v.1.15,2013-01-07 20:50:00,
2013-01-07 15:55:00,33.1,21.1,30.40,NW,313,1.0,10.0,61,0.00,,,0.01,Wunderground v.1.15,2013-01-07 20:55:00,
2013-01-07 16:00:00,32.7,21.9,30.40,ENE,63,0.0,10.0,64,0.00,,,0.01,Wunderground v.1.15,2013-01-07 21:00:00,
2013-01-07 16:05:00,32.2,21.7,30.40,ENE,63,0.0,10.0,65,0.00,,,0.01,Wunderground v.1.15,2013-01-07 21:05:00,
2013-01-07 16:10:00,31.7,21.6,30.40,East,89,0.0,10.0,66,0.00,,,0.01,Wunderground v.1.15,2013-01-07 21:10:00,
2013-01-07 16:20:00,30.6,21.3,30.41,East,101,0.0,10.0,68,0.00,,,0.01,Wunderground v.1.15,2013-01-07 21:20:00,
2013-01-07 16:25:00,30.1,21.2,30.41,East,101,0.0,10.0,69,0.00,,,0.01,Wunderground v.1.15,2013-01-07 21:25:00,
2013-01-07 16:30:00,29.7,21.1,30.40,East,101,0.0,10.0,70,0.00,,,0.01,Wunderground v.1.15,2013-01-07 21:30:00,
2013-01-07 16:35:00,29.1,20.9,30.40,East,101,0.0,10.0,71,0.00,,,0.01,Wunderground v.1.15,2013-01-07 21:35:00,
2013-01-07 16:40:00,28.7,20.8,30.40,East,101,0.0,10.0,72,0.00,,,0.01,Wunderground v.1.15,2013-01-07 21:40:00,
2013-01-07 16:45:00,28.2,20.3,30.40,East,101,0.0,10.0,72,0.00,,,0.01,Wunderground v.1.15,2013-01-07 21:45:00,
2013-01-07 16:50:00,27.8,20.3,30.40,East,101,0.0,10.0,73,0.00,,,0.01,Wunderground v.1.15,2013-01-07 21:50:00,
2013-01-07 16:55:00,27.3,19.8,30.40,East,101,0.0,10.0,73,0.00,,,0.01,Wunderground v.1.15,2013-01-07 21:55:00,
2013-01-07 17:05:00,26.5,19.6,30.39,East,101,0.0,10.0,75,0.00,,,0.01,Wunderground v.1.15,2013-01-07 22:05:00,
2013-01-07 17:10:00,26.1,19.6,30.40,East,101,0.0,10.0,76,0.00,,,0.01,Wunderground v.1.15,2013-01-07 22:10:00,
2013-01-07 17:15:00,25.8,19.6,30.40,East,101,0.0,10.0,77,0.00,,,0.01,Wunderground v.1.15,2013-01-07 22:15:00,
2013-01-07 17:20:00,25.6,19.7,30.41,East,101,0.0,10.0,78,0.00,,,0.01,Wunderground v.1.15,2013-01-07 22:20:00,
2013-01-07 17:25:00,25.3,19.4,30.40,East,101,0.0,10.0,78,0.00,,,0.01,Wunderground v.1.15,2013-01-07 22:25:00,
2013-01-07 17:30:00,25.1,19.2,30.40,East,101,0.0,10.0,78,0.00,,,0.01,Wunderground v.1.15,2013-01-07 22:30:00,
2013-01-07 17:40:00,24.6,19.0,30.39,East,101,0.0,10.0,79,0.00,,,0.01,Wunderground v.1.15,2013-01-07 22:40:00,
2013-01-07 17:45:00,24.4,19.1,30.39,East,101,0.0,10.0,80,0.00,,,0.01,Wunderground v.1.15,2013-01-07 22:45:00,
2013-01-07 17:50:00,24.2,18.9,30.40,East,101,0.0,10.0,80,0.00,,,0.01,Wunderground v.1.15,2013-01-07 22:50:00,
2013-01-07 17:55:00,24.0,18.7,30.40,East,101,0.0,10.0,80,0.00,,,0.01,Wunderground v.1.15,2013-01-07 22:55:00,
2013-01-07 18:00:00,23.8,18.8,30.40,East,101,0.0,10.0,81,0.00,,,0.01,Wunderground v.1.15,2013-01-07 23:00:00,
2013-01-07 18:05:00,23.7,18.7,30.40,East,101,0.0,10.0,81,0.00,,,0.01,Wunderground v.1.15,2013-01-07 23:05:00,
2013-01-07 18:10:00,23.4,18.4,30.40,East,101,0.0,10.0,81,0.00,,,0.01,Wunderground v.1.15,2013-01-07 23:10:00,
2013-01-07 18:20:00,22.9,18.2,30.41,East,101,0.0,10.0,82,0.00,,,0.01,Wunderground v.1.15,2013-01-07 23:20:00,
2013-01-07 18:25:00,22.8,18.4,30.41,East,101,0.0,10.0,83,0.00,,,0.01,Wunderground v.1.15,2013-01-07 23:25:00,
2013-01-07 18:30:00,22.6,18.2,30.40,East,101,0.0,10.0,83,0.00,,,0.01,Wunderground v.1.15,2013-01-07 23:30:00,
2013-01-07 18:35:00,22.5,18.1,30.40,East,101,0.0,10.0,83,0.00,,,0.01,Wunderground v.1.15,2013-01-07 23:35:00,
2013-01-07 18:40:00,22.4,18.0,30.40,East,101,0.0,10.0,83,0.00,,,0.01,Wunderground v.1.15,2013-01-07 23:40:00,
2013-01-07 18:45:00,22.2,17.8,30.40,East,101,0.0,10.0,83,0.00,,,0.01,Wunderground v.1.15,2013-01-07 23:45:00,
2013-01-07 18:50:00,22.0,17.9,30.40,East,101,0.0,10.0,84,0.00,,,0.01,Wunderground v.1.15,2013-01-07 23:50:00,
2013-01-07 19:00:00,21.6,17.8,30.40,East,101,0.0,10.0,85,0.00,,,0.01,Wunderground v.1.15,2013-01-08 00:00:00,
2013-01-07 19:05:00,21.5,17.7,30.40,East,101,0.0,10.0,85,0.00,,,0.01,Wunderground v.1.15,2013-01-08 00:05:00,
2013-01-07 19:10:00,21.3,17.8,30.41,East,101,0.0,10.0,86,0.00,,,0.01,Wunderground v.1.15,2013-01-08 00:10:00,
2013-01-07 19:15:00,21.1,17.6,30.40,East,101,0.0,10.0,86,0.00,,,0.01,Wunderground v.1.15,2013-01-08 00:15:00,
2013-01-07 19:20:00,20.9,17.4,30.40,East,101,0.0,10.0,86,0.00,,,0.01,Wunderground v.1.15,2013-01-08 00:20:00,
2013-01-07 19:30:00,20.8,17.5,30.40,East,101,0.0,10.0,87,0.00,,,0.01,Wunderground v.1.15,2013-01-08 00:30:00,
2013-01-07 19:35:00,20.6,17.3,30.40,East,101,0.0,10.0,87,0.00,,,0.01,Wunderground v.1.15,2013-01-08 00:35:00,
2013-01-07 19:40:00,20.4,17.1,30.40,East,101,0.0,10.0,87,0.00,,,0.01,Wunderground v.1.15,2013-01-08 00:40:00,
2013-01-07 19:45:00,20.2,17.0,30.39,East,101,0.0,10.0,87,0.00,,,0.01,Wunderground v.1.15,2013-01-08 00:45:00,
2013-01-07 19:50:00,20.1,17.1,30.39,East,101,0.0,10.0,88,0.00,,,0.01,Wunderground v.1.15,2013-01-08 00:50:00,
2013-01-07 20:00:00,19.9,16.9,30.39,East,101,0.0,10.0,88,0.00,,,0.01,Wunderground v.1.15,2013-01-08 01:00:00,
2013-01-07 20:05:00,19.8,16.8,30.39,East,101,0.0,10.0,88,0.00,,,0.01,Wunderground v.1.15,2013-01-08 01:05:00,
2013-01-07 20:10:00,19.7,16.7,30.39,East,101,0.0,10.0,88,0.00,,,0.01,Wunderground v.1.15,2013-01-08 01:10:00,
2013-01-07 20:15:00,19.5,16.8,30.39,East,101,0.0,10.0,89,0.00,,,0.01,Wunderground v.1.15,2013-01-08 01:15:00,
2013-01-07 20:20:00,19.4,16.7,30.39,East,101,0.0,10.0,89,0.00,,,0.01,Wunderground v.1.15,2013-01-08 01:20:00,
2013-01-07 20:25:00,19.2,16.5,30.39,East,101,0.0,10.0,89,0.00,,,0.01,Wunderground v.1.15,2013-01-08 01:25:00,
2013-01-07 20:30:00,19.1,16.4,30.38,East,101,0.0,10.0,89,0.00,,,0.01,Wunderground v.1.15,2013-01-08 01:30:00,
2013-01-07 20:40:00,18.8,16.1,30.38,East,101,0.0,10.0,89,0.00,,,0.01,Wunderground v.1.15,2013-01-08 01:40:00,
2013-01-07 20:45:00,18.6,15.9,30.38,East,101,0.0,10.0,89,0.00,,,0.01,Wunderground v.1.15,2013-01-08 01:45:00,
2013-01-07 20:50:00,18.6,16.2,30.37,East,101,0.0,10.0,90,0.00,,,0.01,Wunderground v.1.15,2013-01-08 01:50:00,
2013-01-07 20:55:00,18.4,16.0,30.37,East,101,0.0,10.0,90,0.00,,,0.01,Wunderground v.1.15,2013-01-08 01:55:00,
2013-01-07 21:05:00,18.2,15.8,30.36,East,101,0.0,10.0,90,0.00,,,0.01,Wunderground v.1.15,2013-01-08 02:05:00,
2013-01-07 21:15:00,18.2,16.0,30.37,East,101,0.0,10.0,91,0.00,,,0.01,Wunderground v.1.15,2013-01-08 02:15:00,
2013-01-07 21:20:00,18.2,16.0,30.37,East,101,0.0,10.0,91,0.00,,,0.01,Wunderground v.1.15,2013-01-08 02:20:00,
2013-01-07 21:25:00,17.9,15.7,30.37,East,101,0.0,10.0,91,0.00,,,0.01,Wunderground v.1.15,2013-01-08 02:25:00,
2013-01-07 21:30:00,17.7,15.3,30.36,East,101,0.0,10.0,90,0.00,,,0.01,Wunderground v.1.15,2013-01-08 02:30:00,
2013-01-07 21:35:00,17.5,15.3,30.36,East,101,0.0,10.0,91,0.00,,,0.01,Wunderground v.1.15,2013-01-08 02:35:00,
2013-01-07 21:40:00,17.3,14.9,30.36,East,101,0.0,10.0,90,0.00,,,0.01,Wunderground v.1.15,2013-01-08 02:40:00,
2013-01-07 21:45:00,17.0,14.6,30.35,East,101,0.0,10.0,90,0.00,,,0.01,Wunderground v.1.15,2013-01-08 02:45:00,
2013-01-07 21:55:00,16.8,14.6,30.35,East,101,0.0,10.0,91,0.00,,,0.01,Wunderground v.1.15,2013-01-08 02:55:00,
2013-01-07 22:00:00,16.8,14.9,30.35,East,101,0.0,10.0,92,0.00,,,0.01,Wunderground v.1.15,2013-01-08 03:00:00,
2013-01-07 22:05:00,16.8,14.9,30.36,East,101,0.0,10.0,92,0.00,,,0.01,Wunderground v.1.15,2013-01-08 03:05:00,
2013-01-07 22:10:00,16.9,15.0,30.36,East,101,0.0,10.0,92,0.00,,,0.01,Wunderground v.1.15,2013-01-08 03:10:00,
2013-01-07 22:15:00,17.0,15.3,30.36,East,101,0.0,10.0,93,0.00,,,0.01,Wunderground v.1.15,2013-01-08 03:15:00,
2013-01-07 22:20:00,17.0,15.3,30.36,East,101,0.0,10.0,93,0.00,,,0.01,Wunderground v.1.15,2013-01-08 03:20:00,
2013-01-07 22:25:00,16.9,15.0,30.36,East,101,0.0,10.0,92,0.00,,,0.01,Wunderground v.1.15,2013-01-08 03:25:00,
2013-01-07 22:35:00,16.8,15.1,30.35,East,101,0.0,10.0,93,0.00,,,0.01,Wunderground v.1.15,2013-01-08 03:35:00,
2013-01-07 22:40:00,16.9,15.2,30.35,East,101,0.0,10.0,93,0.00,,,0.01,Wunderground v.1.15,2013-01-08 03:40:00,
2013-01-07 22:45:00,17.0,15.3,30.34,East,101,0.0,10.0,93,0.00,,,0.01,Wunderground v.1.15,2013-01-08 03:45:00,
2013-01-07 22:50:00,17.0,15.3,30.34,East,101,0.0,10.0,93,0.00,,,0.01,Wunderground v.1.15,2013-01-08 03:50:00,
2013-01-07 22:55:00,17.1,15.4,30.35,East,101,0.0,10.0,93,0.00,,,0.01,Wunderground v.1.15,2013-01-08 03:55:00,
2013-01-07 23:00:00,17.2,15.5,30.35,East,101,0.0,10.0,93,0.00,,,0.01,Wunderground v.1.15,2013-01-08 04:00:00,
2013-01-07 23:10:00,17.0,15.3,30.35,East,101,0.0,10.0,93,0.00,,,0.01,Wunderground v.1.15,2013-01-08 04:10:00,
2013-01-07 23:15:00,17.2,15.5,30.34,East,101,0.0,10.0,93,0.00,,,0.01,Wunderground v.1.15,2013-01-08 04:15:00,
2013-01-07 23:20:00,17.6,16.2,30.34,East,101,0.0,10.0,94,0.00,,,0.01,Wunderground v.1.15,2013-01-08 04:20:00,
2013-01-07 23:25:00,17.8,16.4,30.34,East,101,0.0,10.0,94,0.00,,,0.01,Wunderground v.1.15,2013-01-08 04:25:00,
2013-01-07 23:30:00,17.9,16.5,30.34,East,101,0.0,10.0,94,0.00,,,0.01,Wunderground v.1.15,2013-01-08 04:30:00,
2013-01-07 23:35:00,17.9,16.2,30.34,East,101,0.0,10.0,93,0.00,,,0.01,Wunderground v.1.15,2013-01-08 04:35:00,
2013-01-07 23:40:00,17.5,15.6,30.33,East,101,0.0,10.0,92,0.00,,,0.01,Wunderground v.1.15,2013-01-08 04:40:00,
2013-01-07 23:50:00,16.8,14.9,30.34,East,101,0.0,10.0,92,0.00,,,0.01,Wunderground v.1.15,2013-01-08 04:50:00,
2013-01-07 23:55:00,16.6,14.4,30.34,East,101,0.0,10.0,91,0.00,,,0.01,Wunderground v.1.15,2013-01-08 04:55:00,